sensor_id;sensor_type;location;lat;lon;timestamp;temperature;humidity
8527;DHT22;4301;48.362;8.478;2023-04-23T00:01:48;11.20;1.00
8527;DHT22;4301;48.362;8.478;2023-04-23T00:04:15;11.20;1.00
8527;DHT22;4301;48.362;8.478;2023-04-23T00:06:45;11.20;1.00
8527;DHT22;4301;48.362;8.478;2023-04-23T00:09:14;11.10;1.00
8527;DHT22;4301;48.362;8.478;2023-04-23T00:11:43;11.10;1.00
8527;DHT22;4301;48.362;8.478;2023-04-23T00:14:10;11.00;8.00
8527;DHT22;4301;48.362;8.478;2023-04-23T00:16:38;11.00;5.00
8527;DHT22;4301;48.362;8.478;2023-04-23T00:19:05;11.00;18.30
8527;DHT22;4301;48.362;8.478;2023-04-23T00:21:32;11.00;35.70
8527;DHT22;4301;48.362;8.478;2023-04-23T00:23:59;10.90;48.30
8527;DHT22;4301;48.362;8.478;2023-04-23T00:26:26;10.90;59.20
8527;DHT22;4301;48.362;8.478;2023-04-23T00:28:54;10.80;71.20
8527;DHT22;4301;48.362;8.478;2023-04-23T00:31:21;10.80;80.20
8527;DHT22;4301;48.362;8.478;2023-04-23T00:33:48;10.70;95.10
8527;DHT22;4301;48.362;8.478;2023-04-23T00:36:16;10.70;99.40
8527;DHT22;4301;48.362;8.478;2023-04-23T00:38:43;10.60;99.90
8527;DHT22;4301;48.362;8.478;2023-04-23T00:41:10;10.60;99.90
8527;DHT22;4301;48.362;8.478;2023-04-23T00:43:37;10.50;99.90
8527;DHT22;4301;48.362;8.478;2023-04-23T00:46:06;10.50;99.90
8527;DHT22;4301;48.362;8.478;2023-04-23T00:48:33;10.40;99.90
8527;DHT22;4301;48.362;8.478;2023-04-23T00:51:03;10.40;99.90
8527;DHT22;4301;48.362;8.478;2023-04-23T00:53:31;10.40;99.90
8527;DHT22;4301;48.362;8.478;2023-04-23T00:56:00;10.30;99.90
8527;DHT22;4301;48.362;8.478;2023-04-23T00:58:28;10.30;99.90
8527;DHT22;4301;48.362;8.478;2023-04-23T01:00:55;10.40;99.90
8527;DHT22;4301;48.362;8.478;2023-04-23T01:03:25;10.30;99.90
8527;DHT22;4301;48.362;8.478;2023-04-23T01:05:54;10.20;99.90
8527;DHT22;4301;48.362;8.478;2023-04-23T01:08:22;10.20;99.90
8527;DHT22;4301;48.362;8.478;2023-04-23T01:10:51;10.20;99.90
8527;DHT22;4301;48.362;8.478;2023-04-23T01:13:19;10.20;99.90
8527;DHT22;4301;48.362;8.478;2023-04-23T01:15:46;10.20;99.90
8527;DHT22;4301;48.362;8.478;2023-04-23T01:18:13;10.10;99.90
8527;DHT22;4301;48.362;8.478;2023-04-23T01:20:42;10.10;99.90
8527;DHT22;4301;48.362;8.478;2023-04-23T01:23:11;10.10;99.90
8527;DHT22;4301;48.362;8.478;2023-04-23T01:25:38;10.10;99.90
8527;DHT22;4301;48.362;8.478;2023-04-23T01:28:05;10.10;99.90
8527;DHT22;4301;48.362;8.478;2023-04-23T01:30:32;10.00;99.90
8527;DHT22;4301;48.362;8.478;2023-04-23T01:33:00;10.00;99.90
8527;DHT22;4301;48.362;8.478;2023-04-23T01:35:27;10.00;99.90
8527;DHT22;4301;48.362;8.478;2023-04-23T01:37:55;10.00;99.90
8527;DHT22;4301;48.362;8.478;2023-04-23T01:40:24;10.00;99.90
8527;DHT22;4301;48.362;8.478;2023-04-23T01:42:51;10.00;99.90
8527;DHT22;4301;48.362;8.478;2023-04-23T01:45:18;9.90;99.90
8527;DHT22;4301;48.362;8.478;2023-04-23T01:47:45;9.90;99.90
8527;DHT22;4301;48.362;8.478;2023-04-23T01:50:13;9.90;99.90
8527;DHT22;4301;48.362;8.478;2023-04-23T01:52:40;9.90;99.90
8527;DHT22;4301;48.362;8.478;2023-04-23T01:55:09;9.80;99.90
8527;DHT22;4301;48.362;8.478;2023-04-23T01:57:37;9.90;99.90
8527;DHT22;4301;48.362;8.478;2023-04-23T02:00:08;9.80;99.90
8527;DHT22;4301;48.362;8.478;2023-04-23T02:02:36;9.80;99.90
8527;DHT22;4301;48.362;8.478;2023-04-23T02:05:05;9.80;99.90
8527;DHT22;4301;48.362;8.478;2023-04-23T02:07:35;9.80;99.90
8527;DHT22;4301;48.362;8.478;2023-04-23T02:10:03;9.70;99.90
8527;DHT22;4301;48.362;8.478;2023-04-23T02:12:30;9.70;99.90
8527;DHT22;4301;48.362;8.478;2023-04-23T02:14:58;9.60;99.90
8527;DHT22;4301;48.362;8.478;2023-04-23T02:17:27;9.60;99.90
8527;DHT22;4301;48.362;8.478;2023-04-23T02:19:54;9.60;99.90
8527;DHT22;4301;48.362;8.478;2023-04-23T02:22:21;9.60;99.90
8527;DHT22;4301;48.362;8.478;2023-04-23T02:24:50;9.60;99.90
8527;DHT22;4301;48.362;8.478;2023-04-23T02:27:17;9.60;99.90
8527;DHT22;4301;48.362;8.478;2023-04-23T02:29:44;9.60;99.90
8527;DHT22;4301;48.362;8.478;2023-04-23T02:32:13;9.60;99.90
8527;DHT22;4301;48.362;8.478;2023-04-23T02:34:40;9.60;99.90
8527;DHT22;4301;48.362;8.478;2023-04-23T02:37:07;9.50;99.90
8527;DHT22;4301;48.362;8.478;2023-04-23T02:39:34;9.50;99.90
8527;DHT22;4301;48.362;8.478;2023-04-23T02:42:03;9.50;99.90
8527;DHT22;4301;48.362;8.478;2023-04-23T02:44:30;9.50;99.90
8527;DHT22;4301;48.362;8.478;2023-04-23T02:46:57;9.50;99.90
8527;DHT22;4301;48.362;8.478;2023-04-23T02:49:25;9.50;99.90
8527;DHT22;4301;48.362;8.478;2023-04-23T02:51:52;9.40;99.90
8527;DHT22;4301;48.362;8.478;2023-04-23T02:54:19;9.40;99.90
8527;DHT22;4301;48.362;8.478;2023-04-23T02:56:46;9.40;99.90
8527;DHT22;4301;48.362;8.478;2023-04-23T02:59:13;9.40;99.90
8527;DHT22;4301;48.362;8.478;2023-04-23T03:01:40;9.30;99.90
8527;DHT22;4301;48.362;8.478;2023-04-23T03:04:07;9.40;99.90
8527;DHT22;4301;48.362;8.478;2023-04-23T03:06:36;9.40;99.90
8527;DHT22;4301;48.362;8.478;2023-04-23T03:09:03;9.40;99.90
8527;DHT22;4301;48.362;8.478;2023-04-23T03:11:30;9.30;99.90
8527;DHT22;4301;48.362;8.478;2023-04-23T03:13:57;9.20;99.90
8527;DHT22;4301;48.362;8.478;2023-04-23T03:16:28;9.20;99.90
8527;DHT22;4301;48.362;8.478;2023-04-23T03:18:56;9.20;99.90
8527;DHT22;4301;48.362;8.478;2023-04-23T03:21:23;9.20;99.90
8527;DHT22;4301;48.362;8.478;2023-04-23T03:23:51;9.20;99.90
8527;DHT22;4301;48.362;8.478;2023-04-23T03:26:18;9.10;99.90
8527;DHT22;4301;48.362;8.478;2023-04-23T03:28:45;9.10;99.90
8527;DHT22;4301;48.362;8.478;2023-04-23T03:31:12;9.10;99.90
8527;DHT22;4301;48.362;8.478;2023-04-23T03:33:39;9.10;99.90
8527;DHT22;4301;48.362;8.478;2023-04-23T03:36:06;9.10;99.90
8527;DHT22;4301;48.362;8.478;2023-04-23T03:38:33;9.10;99.90
8527;DHT22;4301;48.362;8.478;2023-04-23T03:41:01;9.10;99.90
8527;DHT22;4301;48.362;8.478;2023-04-23T03:43:28;9.00;99.90
8527;DHT22;4301;48.362;8.478;2023-04-23T03:45:55;9.00;99.90
8527;DHT22;4301;48.362;8.478;2023-04-23T03:48:22;9.00;99.90
8527;DHT22;4301;48.362;8.478;2023-04-23T03:50:49;8.90;99.90
8527;DHT22;4301;48.362;8.478;2023-04-23T03:53:16;8.90;99.90
8527;DHT22;4301;48.362;8.478;2023-04-23T03:55:43;8.90;99.90
8527;DHT22;4301;48.362;8.478;2023-04-23T03:58:12;8.80;99.90
8527;DHT22;4301;48.362;8.478;2023-04-23T04:00:38;8.80;99.90
8527;DHT22;4301;48.362;8.478;2023-04-23T04:03:05;8.80;99.90
8527;DHT22;4301;48.362;8.478;2023-04-23T04:05:33;8.80;99.90
8527;DHT22;4301;48.362;8.478;2023-04-23T04:08:00;8.80;99.90
8527;DHT22;4301;48.362;8.478;2023-04-23T04:10:29;8.80;99.90
8527;DHT22;4301;48.362;8.478;2023-04-23T04:12:56;8.80;99.90
8527;DHT22;4301;48.362;8.478;2023-04-23T04:15:24;8.80;99.90
8527;DHT22;4301;48.362;8.478;2023-04-23T04:17:51;8.80;99.90
8527;DHT22;4301;48.362;8.478;2023-04-23T04:20:18;8.80;99.90
8527;DHT22;4301;48.362;8.478;2023-04-23T04:22:45;8.80;99.90
8527;DHT22;4301;48.362;8.478;2023-04-23T04:25:12;8.90;99.90
8527;DHT22;4301;48.362;8.478;2023-04-23T04:27:39;8.90;99.90
8527;DHT22;4301;48.362;8.478;2023-04-23T04:30:09;8.90;99.90
8527;DHT22;4301;48.362;8.478;2023-04-23T04:32:37;8.90;99.90
8527;DHT22;4301;48.362;8.478;2023-04-23T04:35:05;8.90;99.90
8527;DHT22;4301;48.362;8.478;2023-04-23T04:37:33;8.90;99.90
8527;DHT22;4301;48.362;8.478;2023-04-23T04:40:00;8.80;99.90
8527;DHT22;4301;48.362;8.478;2023-04-23T04:42:27;8.80;99.90
8527;DHT22;4301;48.362;8.478;2023-04-23T04:44:54;8.80;99.90
8527;DHT22;4301;48.362;8.478;2023-04-23T04:47:23;8.90;99.90
8527;DHT22;4301;48.362;8.478;2023-04-23T04:49:52;8.90;99.90
8527;DHT22;4301;48.362;8.478;2023-04-23T04:52:22;8.90;99.90
8527;DHT22;4301;48.362;8.478;2023-04-23T04:54:49;8.90;99.90
8527;DHT22;4301;48.362;8.478;2023-04-23T04:57:15;8.90;99.90
8527;DHT22;4301;48.362;8.478;2023-04-23T04:59:43;8.90;99.90
8527;DHT22;4301;48.362;8.478;2023-04-23T05:02:10;9.00;99.90
8527;DHT22;4301;48.362;8.478;2023-04-23T05:04:37;9.00;99.90
8527;DHT22;4301;48.362;8.478;2023-04-23T05:07:05;9.00;99.90
8527;DHT22;4301;48.362;8.478;2023-04-23T05:09:32;9.10;99.90
8527;DHT22;4301;48.362;8.478;2023-04-23T05:11:59;9.10;99.90
8527;DHT22;4301;48.362;8.478;2023-04-23T05:14:27;9.10;99.90
8527;DHT22;4301;48.362;8.478;2023-04-23T05:16:54;9.10;99.90
8527;DHT22;4301;48.362;8.478;2023-04-23T05:19:21;9.20;99.90
8527;DHT22;4301;48.362;8.478;2023-04-23T05:21:48;9.20;99.90
8527;DHT22;4301;48.362;8.478;2023-04-23T05:24:16;9.10;99.90
8527;DHT22;4301;48.362;8.478;2023-04-23T05:26:43;9.20;99.90
8527;DHT22;4301;48.362;8.478;2023-04-23T05:29:10;9.20;99.90
8527;DHT22;4301;48.362;8.478;2023-04-23T05:31:42;9.20;99.90
8527;DHT22;4301;48.362;8.478;2023-04-23T05:34:09;9.30;99.90
8527;DHT22;4301;48.362;8.478;2023-04-23T05:36:36;9.40;99.90
8527;DHT22;4301;48.362;8.478;2023-04-23T05:39:03;9.40;99.90
8527;DHT22;4301;48.362;8.478;2023-04-23T05:41:31;9.40;99.90
8527;DHT22;4301;48.362;8.478;2023-04-23T05:43:58;9.40;99.90
8527;DHT22;4301;48.362;8.478;2023-04-23T05:46:25;9.40;99.90
8527;DHT22;4301;48.362;8.478;2023-04-23T05:48:52;9.50;99.90
8527;DHT22;4301;48.362;8.478;2023-04-23T05:51:19;9.50;99.90
8527;DHT22;4301;48.362;8.478;2023-04-23T05:53:46;9.50;99.90
8527;DHT22;4301;48.362;8.478;2023-04-23T05:56:13;9.50;99.90
8527;DHT22;4301;48.362;8.478;2023-04-23T05:58:42;9.50;99.90
8527;DHT22;4301;48.362;8.478;2023-04-23T06:01:09;9.50;99.90
8527;DHT22;4301;48.362;8.478;2023-04-23T06:03:36;9.50;99.90
8527;DHT22;4301;48.362;8.478;2023-04-23T06:06:06;9.60;99.90
8527;DHT22;4301;48.362;8.478;2023-04-23T06:08:33;9.60;99.90
8527;DHT22;4301;48.362;8.478;2023-04-23T06:11:00;9.70;99.90
8527;DHT22;4301;48.362;8.478;2023-04-23T06:13:27;9.70;99.90
8527;DHT22;4301;48.362;8.478;2023-04-23T06:15:57;9.80;99.90
8527;DHT22;4301;48.362;8.478;2023-04-23T06:18:24;9.80;99.90
8527;DHT22;4301;48.362;8.478;2023-04-23T06:20:52;10.00;99.90
8527;DHT22;4301;48.362;8.478;2023-04-23T06:23:21;10.00;99.90
8527;DHT22;4301;48.362;8.478;2023-04-23T06:25:48;10.10;95.50
8527;DHT22;4301;48.362;8.478;2023-04-23T06:28:15;10.40;98.10
8527;DHT22;4301;48.362;8.478;2023-04-23T06:30:42;10.40;56.70
8527;DHT22;4301;48.362;8.478;2023-04-23T06:33:11;10.50;41.60
8527;DHT22;4301;48.362;8.478;2023-04-23T06:35:38;10.50;1.10
8527;DHT22;4301;48.362;8.478;2023-04-23T06:38:05;10.50;29.30
8527;DHT22;4301;48.362;8.478;2023-04-23T06:40:32;10.60;29.60
8527;DHT22;4301;48.362;8.478;2023-04-23T06:42:59;10.70;1.00
8527;DHT22;4301;48.362;8.478;2023-04-23T06:45:29;10.90;1.00
8527;DHT22;4301;48.362;8.478;2023-04-23T06:47:57;11.00;1.00
8527;DHT22;4301;48.362;8.478;2023-04-23T06:50:26;11.20;1.00
8527;DHT22;4301;48.362;8.478;2023-04-23T06:52:53;11.10;1.00
8527;DHT22;4301;48.362;8.478;2023-04-23T06:55:20;11.00;1.00
8527;DHT22;4301;48.362;8.478;2023-04-23T06:57:50;11.20;1.00
8527;DHT22;4301;48.362;8.478;2023-04-23T07:00:18;11.40;1.00
8527;DHT22;4301;48.362;8.478;2023-04-23T07:02:45;11.50;1.00
8527;DHT22;4301;48.362;8.478;2023-04-23T07:05:12;11.50;1.00
8527;DHT22;4301;48.362;8.478;2023-04-23T07:07:40;11.70;1.00
8527;DHT22;4301;48.362;8.478;2023-04-23T07:10:08;11.90;1.00
8527;DHT22;4301;48.362;8.478;2023-04-23T07:12:36;12.10;1.00
8527;DHT22;4301;48.362;8.478;2023-04-23T07:15:04;12.00;1.00
8527;DHT22;4301;48.362;8.478;2023-04-23T07:17:31;11.90;1.00
8527;DHT22;4301;48.362;8.478;2023-04-23T07:19:58;12.00;1.00
8527;DHT22;4301;48.362;8.478;2023-04-23T07:22:25;12.10;99.90
8527;DHT22;4301;48.362;8.478;2023-04-23T07:24:53;11.90;99.90
8527;DHT22;4301;48.362;8.478;2023-04-23T07:27:20;12.00;99.90
8527;DHT22;4301;48.362;8.478;2023-04-23T07:29:47;12.20;99.90
8527;DHT22;4301;48.362;8.478;2023-04-23T07:32:14;12.30;99.90
8527;DHT22;4301;48.362;8.478;2023-04-23T07:34:41;12.60;1.00
8527;DHT22;4301;48.362;8.478;2023-04-23T07:37:08;12.60;99.90
8527;DHT22;4301;48.362;8.478;2023-04-23T07:39:35;12.80;1.00
8527;DHT22;4301;48.362;8.478;2023-04-23T07:42:03;12.80;99.90
8527;DHT22;4301;48.362;8.478;2023-04-23T07:44:30;12.90;1.00
8527;DHT22;4301;48.362;8.478;2023-04-23T07:46:57;13.00;95.50
8527;DHT22;4301;48.362;8.478;2023-04-23T07:49:25;13.10;72.20
8527;DHT22;4301;48.362;8.478;2023-04-23T07:51:51;13.00;99.90
8527;DHT22;4301;48.362;8.478;2023-04-23T07:54:18;13.10;1.00
8527;DHT22;4301;48.362;8.478;2023-04-23T07:56:45;13.10;1.00
8527;DHT22;4301;48.362;8.478;2023-04-23T07:59:14;13.10;1.00
8527;DHT22;4301;48.362;8.478;2023-04-23T08:01:41;13.30;1.00
8527;DHT22;4301;48.362;8.478;2023-04-23T08:04:08;13.50;99.90
8527;DHT22;4301;48.362;8.478;2023-04-23T08:06:35;13.40;99.90
8527;DHT22;4301;48.362;8.478;2023-04-23T08:09:01;13.60;1.00
8527;DHT22;4301;48.362;8.478;2023-04-23T08:11:31;13.90;2.50
8527;DHT22;4301;48.362;8.478;2023-04-23T08:13:58;13.70;1.00
8527;DHT22;4301;48.362;8.478;2023-04-23T08:16:27;14.00;1.00
8527;DHT22;4301;48.362;8.478;2023-04-23T08:18:54;14.50;99.90
8527;DHT22;4301;48.362;8.478;2023-04-23T08:21:21;15.00;3.30
8527;DHT22;4301;48.362;8.478;2023-04-23T08:23:49;15.40;1.00
8527;DHT22;4301;48.362;8.478;2023-04-23T08:26:16;15.60;99.90
8527;DHT22;4301;48.362;8.478;2023-04-23T08:28:43;15.60;48.90
8527;DHT22;4301;48.362;8.478;2023-04-23T08:31:10;15.60;1.00
8527;DHT22;4301;48.362;8.478;2023-04-23T08:33:39;15.60;1.00
8527;DHT22;4301;48.362;8.478;2023-04-23T08:36:06;15.90;1.00
8527;DHT22;4301;48.362;8.478;2023-04-23T08:38:33;16.10;1.00
8527;DHT22;4301;48.362;8.478;2023-04-23T08:41:02;16.00;1.00
8527;DHT22;4301;48.362;8.478;2023-04-23T08:43:40;15.70;1.00
8527;DHT22;4301;48.362;8.478;2023-04-23T08:46:11;16.00;1.00
8527;DHT22;4301;48.362;8.478;2023-04-23T08:48:41;16.20;1.00
8527;DHT22;4301;48.362;8.478;2023-04-23T08:51:12;16.40;1.00
8527;DHT22;4301;48.362;8.478;2023-04-23T08:53:43;16.50;1.00
8527;DHT22;4301;48.362;8.478;2023-04-23T08:56:12;16.70;1.00
8527;DHT22;4301;48.362;8.478;2023-04-23T08:58:41;16.90;1.00
8527;DHT22;4301;48.362;8.478;2023-04-23T09:01:09;17.00;99.90
8527;DHT22;4301;48.362;8.478;2023-04-23T09:03:36;16.80;99.90
8527;DHT22;4301;48.362;8.478;2023-04-23T09:06:06;17.40;99.90
8527;DHT22;4301;48.362;8.478;2023-04-23T09:08:33;18.20;99.90
8527;DHT22;4301;48.362;8.478;2023-04-23T09:11:01;18.30;99.90
8527;DHT22;4301;48.362;8.478;2023-04-23T09:13:29;18.60;99.90
8527;DHT22;4301;48.362;8.478;2023-04-23T09:15:57;18.60;99.90
8527;DHT22;4301;48.362;8.478;2023-04-23T09:18:24;19.00;99.90
8527;DHT22;4301;48.362;8.478;2023-04-23T09:20:51;18.90;99.90
8527;DHT22;4301;48.362;8.478;2023-04-23T09:23:22;19.00;99.90
8527;DHT22;4301;48.362;8.478;2023-04-23T09:25:49;19.70;99.90
8527;DHT22;4301;48.362;8.478;2023-04-23T09:28:17;19.70;99.90
8527;DHT22;4301;48.362;8.478;2023-04-23T09:30:44;19.40;99.90
8527;DHT22;4301;48.362;8.478;2023-04-23T09:33:12;19.30;99.90
8527;DHT22;4301;48.362;8.478;2023-04-23T09:35:39;19.00;99.90
8527;DHT22;4301;48.362;8.478;2023-04-23T09:38:08;19.10;99.90
8527;DHT22;4301;48.362;8.478;2023-04-23T09:40:36;19.00;99.90
8527;DHT22;4301;48.362;8.478;2023-04-23T09:43:04;19.20;99.90
8527;DHT22;4301;48.362;8.478;2023-04-23T09:45:32;19.50;99.90
8527;DHT22;4301;48.362;8.478;2023-04-23T09:47:59;19.30;99.90
8527;DHT22;4301;48.362;8.478;2023-04-23T09:50:33;19.10;99.90
8527;DHT22;4301;48.362;8.478;2023-04-23T09:53:01;19.30;99.90
8527;DHT22;4301;48.362;8.478;2023-04-23T09:55:29;19.10;99.90
8527;DHT22;4301;48.362;8.478;2023-04-23T09:58:01;19.10;99.90
8527;DHT22;4301;48.362;8.478;2023-04-23T10:00:32;19.30;99.90
8527;DHT22;4301;48.362;8.478;2023-04-23T10:03:00;20.30;99.90
8527;DHT22;4301;48.362;8.478;2023-04-23T10:05:27;20.60;99.90
8527;DHT22;4301;48.362;8.478;2023-04-23T10:07:54;20.70;97.60
8527;DHT22;4301;48.362;8.478;2023-04-23T10:10:23;20.00;99.90
8527;DHT22;4301;48.362;8.478;2023-04-23T10:12:51;20.50;97.70
8527;DHT22;4301;48.362;8.478;2023-04-23T10:15:22;21.20;99.90
8527;DHT22;4301;48.362;8.478;2023-04-23T10:17:51;21.20;92.10
8527;DHT22;4301;48.362;8.478;2023-04-23T10:20:19;19.90;99.90
8527;DHT22;4301;48.362;8.478;2023-04-23T10:22:47;19.30;99.90
8527;DHT22;4301;48.362;8.478;2023-04-23T10:25:15;19.70;99.90
8527;DHT22;4301;48.362;8.478;2023-04-23T10:27:43;18.70;99.90
8527;DHT22;4301;48.362;8.478;2023-04-23T10:30:12;18.90;99.90
8527;DHT22;4301;48.362;8.478;2023-04-23T10:32:40;18.30;99.90
8527;DHT22;4301;48.362;8.478;2023-04-23T10:35:08;17.80;99.90
8527;DHT22;4301;48.362;8.478;2023-04-23T10:37:36;17.20;99.90
8527;DHT22;4301;48.362;8.478;2023-04-23T10:40:06;17.30;99.90
8527;DHT22;4301;48.362;8.478;2023-04-23T10:42:37;17.10;99.90
8527;DHT22;4301;48.362;8.478;2023-04-23T10:45:12;17.00;99.90
8527;DHT22;4301;48.362;8.478;2023-04-23T10:47:43;17.70;99.90
8527;DHT22;4301;48.362;8.478;2023-04-23T10:50:22;18.20;99.90
8527;DHT22;4301;48.362;8.478;2023-04-23T10:52:49;17.90;99.90
8527;DHT22;4301;48.362;8.478;2023-04-23T10:55:20;17.30;99.90
8527;DHT22;4301;48.362;8.478;2023-04-23T10:58:00;17.20;99.90
8527;DHT22;4301;48.362;8.478;2023-04-23T11:00:29;17.20;99.90
8527;DHT22;4301;48.362;8.478;2023-04-23T11:02:58;17.00;99.90
8527;DHT22;4301;48.362;8.478;2023-04-23T11:05:27;17.00;99.90
8527;DHT22;4301;48.362;8.478;2023-04-23T11:08:05;16.90;99.90
8527;DHT22;4301;48.362;8.478;2023-04-23T11:10:32;17.20;99.90
8527;DHT22;4301;48.362;8.478;2023-04-23T11:13:21;18.10;99.90
8527;DHT22;4301;48.362;8.478;2023-04-23T11:15:49;19.00;99.90
8527;DHT22;4301;48.362;8.478;2023-04-23T11:18:56;19.20;99.90
8527;DHT22;4301;48.362;8.478;2023-04-23T11:22:01;18.60;99.90
8527;DHT22;4301;48.362;8.478;2023-04-23T11:24:30;18.60;99.90
8527;DHT22;4301;48.362;8.478;2023-04-23T11:26:58;18.10;99.90
8527;DHT22;4301;48.362;8.478;2023-04-23T11:29:26;18.70;99.90
8527;DHT22;4301;48.362;8.478;2023-04-23T11:31:54;18.20;99.90
8527;DHT22;4301;48.362;8.478;2023-04-23T11:34:22;18.00;99.90
8527;DHT22;4301;48.362;8.478;2023-04-23T11:36:51;18.40;99.90
8527;DHT22;4301;48.362;8.478;2023-04-23T11:39:20;18.90;99.90
8527;DHT22;4301;48.362;8.478;2023-04-23T11:41:48;19.10;99.90
8527;DHT22;4301;48.362;8.478;2023-04-23T11:44:17;20.20;99.90
8527;DHT22;4301;48.362;8.478;2023-04-23T11:46:45;21.60;99.90
8527;DHT22;4301;48.362;8.478;2023-04-23T11:49:13;22.10;99.90
8527;DHT22;4301;48.362;8.478;2023-04-23T11:51:42;22.70;99.90
8527;DHT22;4301;48.362;8.478;2023-04-23T11:54:09;23.60;99.80
8527;DHT22;4301;48.362;8.478;2023-04-23T11:56:39;24.20;35.20
8527;DHT22;4301;48.362;8.478;2023-04-23T11:59:07;24.40;18.20
8527;DHT22;4301;48.362;8.478;2023-04-23T12:01:44;23.20;5.70
8527;DHT22;4301;48.362;8.478;2023-04-23T12:04:13;23.70;8.90
8527;DHT22;4301;48.362;8.478;2023-04-23T12:06:41;24.00;2.10
8527;DHT22;4301;48.362;8.478;2023-04-23T12:09:08;24.00;1.00
8527;DHT22;4301;48.362;8.478;2023-04-23T12:11:36;23.60;1.00
8527;DHT22;4301;48.362;8.478;2023-04-23T12:14:05;23.60;1.00
8527;DHT22;4301;48.362;8.478;2023-04-23T12:16:34;24.20;1.00
8527;DHT22;4301;48.362;8.478;2023-04-23T12:19:02;23.60;1.00
8527;DHT22;4301;48.362;8.478;2023-04-23T12:21:29;22.30;1.00
8527;DHT22;4301;48.362;8.478;2023-04-23T12:23:57;23.20;1.00
8527;DHT22;4301;48.362;8.478;2023-04-23T12:26:25;22.90;1.00
8527;DHT22;4301;48.362;8.478;2023-04-23T12:28:55;23.70;1.00
8527;DHT22;4301;48.362;8.478;2023-04-23T12:31:26;24.30;1.00
8527;DHT22;4301;48.362;8.478;2023-04-23T12:33:56;24.60;1.00
8527;DHT22;4301;48.362;8.478;2023-04-23T12:36:26;24.90;1.00
8527;DHT22;4301;48.362;8.478;2023-04-23T12:39:24;24.40;1.00
8527;DHT22;4301;48.362;8.478;2023-04-23T12:41:52;24.00;1.00
8527;DHT22;4301;48.362;8.478;2023-04-23T12:44:21;24.20;1.00
8527;DHT22;4301;48.362;8.478;2023-04-23T12:46:53;25.00;1.00
8527;DHT22;4301;48.362;8.478;2023-04-23T12:49:21;24.90;1.00
8527;DHT22;4301;48.362;8.478;2023-04-23T12:51:48;25.00;1.00
8527;DHT22;4301;48.362;8.478;2023-04-23T12:54:15;24.90;1.00
8527;DHT22;4301;48.362;8.478;2023-04-23T12:56:42;24.70;1.00
8527;DHT22;4301;48.362;8.478;2023-04-23T12:59:09;25.00;1.00
8527;DHT22;4301;48.362;8.478;2023-04-23T13:01:36;24.80;1.00
8527;DHT22;4301;48.362;8.478;2023-04-23T13:04:04;24.30;1.00
8527;DHT22;4301;48.362;8.478;2023-04-23T13:06:31;24.30;1.00
8527;DHT22;4301;48.362;8.478;2023-04-23T13:08:58;24.00;1.00
8527;DHT22;4301;48.362;8.478;2023-04-23T13:11:27;23.40;1.00
8527;DHT22;4301;48.362;8.478;2023-04-23T13:13:54;22.70;1.00
8527;DHT22;4301;48.362;8.478;2023-04-23T13:16:22;22.70;1.00
8527;DHT22;4301;48.362;8.478;2023-04-23T13:18:49;22.00;1.00
8527;DHT22;4301;48.362;8.478;2023-04-23T13:21:18;21.90;1.00
8527;DHT22;4301;48.362;8.478;2023-04-23T13:23:45;21.80;1.00
8527;DHT22;4301;48.362;8.478;2023-04-23T13:26:13;22.00;1.00
8527;DHT22;4301;48.362;8.478;2023-04-23T13:28:39;22.00;1.00
8527;DHT22;4301;48.362;8.478;2023-04-23T13:31:06;21.80;1.00
8527;DHT22;4301;48.362;8.478;2023-04-23T13:33:36;22.30;1.00
8527;DHT22;4301;48.362;8.478;2023-04-23T13:36:03;22.60;1.00
8527;DHT22;4301;48.362;8.478;2023-04-23T13:38:32;22.80;1.00
8527;DHT22;4301;48.362;8.478;2023-04-23T13:40:59;22.90;1.00
8527;DHT22;4301;48.362;8.478;2023-04-23T13:43:26;22.60;1.00
8527;DHT22;4301;48.362;8.478;2023-04-23T13:45:53;22.30;1.00
8527;DHT22;4301;48.362;8.478;2023-04-23T13:48:20;22.00;1.00
8527;DHT22;4301;48.362;8.478;2023-04-23T13:50:47;21.40;1.00
8527;DHT22;4301;48.362;8.478;2023-04-23T13:53:14;21.20;1.00
8527;DHT22;4301;48.362;8.478;2023-04-23T13:55:42;20.90;1.00
8527;DHT22;4301;48.362;8.478;2023-04-23T13:58:09;20.90;1.00
8527;DHT22;4301;48.362;8.478;2023-04-23T14:00:36;20.70;1.00
8527;DHT22;4301;48.362;8.478;2023-04-23T14:03:03;20.40;1.00
8527;DHT22;4301;48.362;8.478;2023-04-23T14:05:30;20.10;1.00
8527;DHT22;4301;48.362;8.478;2023-04-23T14:07:57;19.70;1.00
8527;DHT22;4301;48.362;8.478;2023-04-23T14:10:24;19.20;1.00
8527;DHT22;4301;48.362;8.478;2023-04-23T14:12:54;18.80;1.00
8527;DHT22;4301;48.362;8.478;2023-04-23T14:15:21;18.90;1.00
8527;DHT22;4301;48.362;8.478;2023-04-23T14:17:48;19.10;1.00
8527;DHT22;4301;48.362;8.478;2023-04-23T14:20:15;19.50;1.00
8527;DHT22;4301;48.362;8.478;2023-04-23T14:22:48;19.50;1.00
8527;DHT22;4301;48.362;8.478;2023-04-23T14:25:23;19.60;1.00
8527;DHT22;4301;48.362;8.478;2023-04-23T14:27:56;19.60;1.00
8527;DHT22;4301;48.362;8.478;2023-04-23T14:30:26;19.40;1.00
8527;DHT22;4301;48.362;8.478;2023-04-23T14:32:54;19.60;1.00
8527;DHT22;4301;48.362;8.478;2023-04-23T14:35:22;19.20;1.00
8527;DHT22;4301;48.362;8.478;2023-04-23T14:37:50;19.20;1.00
8527;DHT22;4301;48.362;8.478;2023-04-23T14:40:17;19.20;1.00
8527;DHT22;4301;48.362;8.478;2023-04-23T14:42:46;19.20;1.00
8527;DHT22;4301;48.362;8.478;2023-04-23T14:45:14;19.30;1.00
8527;DHT22;4301;48.362;8.478;2023-04-23T14:47:44;19.20;1.00
8527;DHT22;4301;48.362;8.478;2023-04-23T14:50:13;19.10;1.00
8527;DHT22;4301;48.362;8.478;2023-04-23T14:52:42;19.10;1.00
8527;DHT22;4301;48.362;8.478;2023-04-23T14:55:12;19.10;1.00
8527;DHT22;4301;48.362;8.478;2023-04-23T14:57:39;19.20;1.00
8527;DHT22;4301;48.362;8.478;2023-04-23T15:00:07;19.30;1.00
8527;DHT22;4301;48.362;8.478;2023-04-23T15:02:39;19.40;1.00
8527;DHT22;4301;48.362;8.478;2023-04-23T15:05:06;19.10;1.00
8527;DHT22;4301;48.362;8.478;2023-04-23T15:07:34;19.10;1.00
8527;DHT22;4301;48.362;8.478;2023-04-23T15:10:01;19.10;1.00
8527;DHT22;4301;48.362;8.478;2023-04-23T15:12:52;18.90;1.00
8527;DHT22;4301;48.362;8.478;2023-04-23T15:15:26;18.50;1.00
8527;DHT22;4301;48.362;8.478;2023-04-23T15:17:55;18.10;1.00
8527;DHT22;4301;48.362;8.478;2023-04-23T15:20:21;17.80;1.00
8527;DHT22;4301;48.362;8.478;2023-04-23T15:22:48;17.40;1.00
8527;DHT22;4301;48.362;8.478;2023-04-23T15:25:16;16.80;68.20
8527;DHT22;4301;48.362;8.478;2023-04-23T15:27:44;15.80;99.90
8527;DHT22;4301;48.362;8.478;2023-04-23T15:30:11;15.00;1.00
8527;DHT22;4301;48.362;8.478;2023-04-23T15:32:38;14.40;1.00
8527;DHT22;4301;48.362;8.478;2023-04-23T15:35:07;14.20;1.00
8527;DHT22;4301;48.362;8.478;2023-04-23T15:37:34;14.10;99.90
8527;DHT22;4301;48.362;8.478;2023-04-23T15:40:01;14.00;99.90
8527;DHT22;4301;48.362;8.478;2023-04-23T15:42:28;14.10;1.00
8527;DHT22;4301;48.362;8.478;2023-04-23T15:44:55;14.10;99.90
8527;DHT22;4301;48.362;8.478;2023-04-23T15:47:22;14.20;99.90
8527;DHT22;4301;48.362;8.478;2023-04-23T15:49:49;14.40;99.90
8527;DHT22;4301;48.362;8.478;2023-04-23T15:52:17;14.70;99.90
8527;DHT22;4301;48.362;8.478;2023-04-23T15:54:44;15.10;65.80
8527;DHT22;4301;48.362;8.478;2023-04-23T15:57:11;15.30;99.90
8527;DHT22;4301;48.362;8.478;2023-04-23T15:59:38;15.50;1.00
8527;DHT22;4301;48.362;8.478;2023-04-23T16:02:05;15.30;99.90
8527;DHT22;4301;48.362;8.478;2023-04-23T16:04:32;15.10;1.00
8527;DHT22;4301;48.362;8.478;2023-04-23T16:06:59;15.20;99.90
8527;DHT22;4301;48.362;8.478;2023-04-23T16:09:29;15.10;1.00
8527;DHT22;4301;48.362;8.478;2023-04-23T16:11:57;14.90;1.00
8527;DHT22;4301;48.362;8.478;2023-04-23T16:14:24;14.80;1.00
8527;DHT22;4301;48.362;8.478;2023-04-23T16:16:51;14.70;1.00
8527;DHT22;4301;48.362;8.478;2023-04-23T16:19:18;14.60;1.00